Terminal Aerodrome Forecast
Issued by NWS Sterling, VA

Current Version | Previous Version | Graphics & Text | Print | Product List | Glossary On
Versions: 1 2 3 4 5 6 7 8 9 10 11 12 13 14 15 16 17 18 19 20 21 22 23 24
000
FTUS41 KLWX 221120
TAFIAD
TAF
KIAD 221120Z 2212/2318 36008KT 5SM -SHRA OVC015
     FM221400 36008KT 6SM -SHRA OVC015
     FM221500 35008KT P6SM OVC015
     FM221700 35007KT P6SM OVC020
     FM221800 36007KT 6SM -SHRA OVC020
     FM222000 36007KT 6SM -SHRA OVC015
     FM222300 36005KT 6SM -SHRA OVC020
     FM230000 35005KT P6SM OVC030
     FM230300 35004KT P6SM OVC070
     FM231700 05005KT P6SM OVC100=

USA.gov is the U.S. government's official web portal to all federal, state and local government web resources and services.